sensor_id;sensor_type;location;lat;lon;timestamp;temperature;humidity
26164;DHT22;13914;48.178;11.716;2022-08-19T00:00:36;19.50;64.90
26164;DHT22;13914;48.178;11.716;2022-08-19T00:03:03;19.50;64.90
26164;DHT22;13914;48.178;11.716;2022-08-19T00:05:30;19.50;65.00
26164;DHT22;13914;48.178;11.716;2022-08-19T00:07:57;19.50;65.20
26164;DHT22;13914;48.178;11.716;2022-08-19T00:10:22;19.40;65.20
26164;DHT22;13914;48.178;11.716;2022-08-19T00:12:50;19.40;65.10
26164;DHT22;13914;48.178;11.716;2022-08-19T00:15:19;19.40;65.40
26164;DHT22;13914;48.178;11.716;2022-08-19T00:17:47;19.40;66.00
26164;DHT22;13914;48.178;11.716;2022-08-19T00:20:16;19.40;65.50
26164;DHT22;13914;48.178;11.716;2022-08-19T00:22:44;19.40;65.60
26164;DHT22;13914;48.178;11.716;2022-08-19T00:25:10;19.40;66.20
26164;DHT22;13914;48.178;11.716;2022-08-19T00:27:36;19.40;66.10
26164;DHT22;13914;48.178;11.716;2022-08-19T00:30:05;19.40;65.80
26164;DHT22;13914;48.178;11.716;2022-08-19T00:32:31;19.30;67.00
26164;DHT22;13914;48.178;11.716;2022-08-19T00:35:00;19.30;66.90
26164;DHT22;13914;48.178;11.716;2022-08-19T00:37:26;19.30;66.70
26164;DHT22;13914;48.178;11.716;2022-08-19T00:39:52;19.30;66.30
26164;DHT22;13914;48.178;11.716;2022-08-19T00:42:20;19.30;66.60
26164;DHT22;13914;48.178;11.716;2022-08-19T00:44:47;19.30;66.70
26164;DHT22;13914;48.178;11.716;2022-08-19T00:47:13;19.20;67.40
26164;DHT22;13914;48.178;11.716;2022-08-19T00:49:52;19.30;66.10
26164;DHT22;13914;48.178;11.716;2022-08-19T00:52:28;19.30;65.70
26164;DHT22;13914;48.178;11.716;2022-08-19T00:54:58;19.20;65.70
26164;DHT22;13914;48.178;11.716;2022-08-19T00:57:35;19.20;65.80
26164;DHT22;13914;48.178;11.716;2022-08-19T01:00:05;19.20;66.10
26164;DHT22;13914;48.178;11.716;2022-08-19T01:02:36;19.20;66.90
26164;DHT22;13914;48.178;11.716;2022-08-19T01:05:06;19.20;66.10
26164;DHT22;13914;48.178;11.716;2022-08-19T01:07:36;19.20;65.80
26164;DHT22;13914;48.178;11.716;2022-08-19T01:10:09;19.20;65.80
26164;DHT22;13914;48.178;11.716;2022-08-19T01:12:38;19.20;66.70
26164;DHT22;13914;48.178;11.716;2022-08-19T01:15:10;19.20;67.40
26164;DHT22;13914;48.178;11.716;2022-08-19T01:17:38;19.20;66.60
26164;DHT22;13914;48.178;11.716;2022-08-19T01:20:06;19.20;66.30
26164;DHT22;13914;48.178;11.716;2022-08-19T01:22:44;19.20;66.90
26164;DHT22;13914;48.178;11.716;2022-08-19T01:25:13;19.10;67.20
26164;DHT22;13914;48.178;11.716;2022-08-19T01:27:43;19.10;68.40
26164;DHT22;13914;48.178;11.716;2022-08-19T01:30:14;19.10;67.50
26164;DHT22;13914;48.178;11.716;2022-08-19T01:32:43;19.10;67.70
26164;DHT22;13914;48.178;11.716;2022-08-19T01:35:10;19.10;68.10
26164;DHT22;13914;48.178;11.716;2022-08-19T01:38:04;19.10;68.00
26164;DHT22;13914;48.178;11.716;2022-08-19T01:40:33;19.00;67.40
26164;DHT22;13914;48.178;11.716;2022-08-19T01:43:02;19.00;66.50
26164;DHT22;13914;48.178;11.716;2022-08-19T01:45:30;19.00;67.50
26164;DHT22;13914;48.178;11.716;2022-08-19T01:47:58;19.00;66.90
26164;DHT22;13914;48.178;11.716;2022-08-19T01:50:25;19.00;66.90
26164;DHT22;13914;48.178;11.716;2022-08-19T01:52:52;19.00;66.60
26164;DHT22;13914;48.178;11.716;2022-08-19T01:55:19;19.00;66.10
26164;DHT22;13914;48.178;11.716;2022-08-19T01:57:50;19.00;66.40
26164;DHT22;13914;48.178;11.716;2022-08-19T02:00:21;19.00;66.20
26164;DHT22;13914;48.178;11.716;2022-08-19T02:02:48;19.00;66.10
26164;DHT22;13914;48.178;11.716;2022-08-19T02:05:15;19.00;66.20
26164;DHT22;13914;48.178;11.716;2022-08-19T02:07:44;19.00;66.00
26164;DHT22;13914;48.178;11.716;2022-08-19T02:10:15;19.00;66.70
26164;DHT22;13914;48.178;11.716;2022-08-19T02:12:44;19.00;66.10
26164;DHT22;13914;48.178;11.716;2022-08-19T02:15:10;19.00;65.70
26164;DHT22;13914;48.178;11.716;2022-08-19T02:17:37;19.00;66.60
26164;DHT22;13914;48.178;11.716;2022-08-19T02:20:03;18.90;65.60
26164;DHT22;13914;48.178;11.716;2022-08-19T02:22:29;18.90;66.20
26164;DHT22;13914;48.178;11.716;2022-08-19T02:24:55;18.90;66.00
26164;DHT22;13914;48.178;11.716;2022-08-19T02:27:22;18.90;66.40
26164;DHT22;13914;48.178;11.716;2022-08-19T02:29:50;18.90;66.30
26164;DHT22;13914;48.178;11.716;2022-08-19T02:32:17;18.90;66.30
26164;DHT22;13914;48.178;11.716;2022-08-19T02:34:47;18.90;66.30
26164;DHT22;13914;48.178;11.716;2022-08-19T02:37:13;18.90;66.20
26164;DHT22;13914;48.178;11.716;2022-08-19T02:39:59;18.90;66.40
26164;DHT22;13914;48.178;11.716;2022-08-19T02:42:24;18.90;66.70
26164;DHT22;13914;48.178;11.716;2022-08-19T02:44:50;18.90;66.70
26164;DHT22;13914;48.178;11.716;2022-08-19T02:47:17;18.90;66.60
26164;DHT22;13914;48.178;11.716;2022-08-19T02:49:45;18.90;66.70
26164;DHT22;13914;48.178;11.716;2022-08-19T02:52:11;18.90;66.90
26164;DHT22;13914;48.178;11.716;2022-08-19T02:54:37;18.90;68.40
26164;DHT22;13914;48.178;11.716;2022-08-19T02:57:04;18.90;67.70
26164;DHT22;13914;48.178;11.716;2022-08-19T02:59:32;18.80;67.30
26164;DHT22;13914;48.178;11.716;2022-08-19T03:01:59;18.80;67.80
26164;DHT22;13914;48.178;11.716;2022-08-19T03:04:25;18.90;66.70
26164;DHT22;13914;48.178;11.716;2022-08-19T03:06:52;18.80;66.40
26164;DHT22;13914;48.178;11.716;2022-08-19T03:09:19;18.90;67.00
26164;DHT22;13914;48.178;11.716;2022-08-19T03:11:45;18.90;67.00
26164;DHT22;13914;48.178;11.716;2022-08-19T03:14:12;18.80;66.10
26164;DHT22;13914;48.178;11.716;2022-08-19T03:16:45;18.80;66.10
26164;DHT22;13914;48.178;11.716;2022-08-19T03:19:13;18.80;66.20
26164;DHT22;13914;48.178;11.716;2022-08-19T03:21:42;18.80;66.60
26164;DHT22;13914;48.178;11.716;2022-08-19T03:24:10;18.80;66.70
26164;DHT22;13914;48.178;11.716;2022-08-19T03:26:42;18.80;67.50
26164;DHT22;13914;48.178;11.716;2022-08-19T03:29:13;18.80;67.10
26164;DHT22;13914;48.178;11.716;2022-08-19T03:31:42;18.80;66.70
26164;DHT22;13914;48.178;11.716;2022-08-19T03:34:13;18.80;67.60
26164;DHT22;13914;48.178;11.716;2022-08-19T03:36:40;18.80;67.30
26164;DHT22;13914;48.178;11.716;2022-08-19T03:39:06;18.80;66.70
26164;DHT22;13914;48.178;11.716;2022-08-19T03:41:38;18.80;65.70
26164;DHT22;13914;48.178;11.716;2022-08-19T03:44:05;18.80;66.90
26164;DHT22;13914;48.178;11.716;2022-08-19T03:46:34;18.80;66.60
26164;DHT22;13914;48.178;11.716;2022-08-19T03:49:02;18.80;67.10
26164;DHT22;13914;48.178;11.716;2022-08-19T03:51:38;18.80;66.30
26164;DHT22;13914;48.178;11.716;2022-08-19T03:54:11;18.80;66.60
26164;DHT22;13914;48.178;11.716;2022-08-19T03:56:39;18.80;66.60
26164;DHT22;13914;48.178;11.716;2022-08-19T03:59:08;18.80;66.10
26164;DHT22;13914;48.178;11.716;2022-08-19T04:01:36;18.80;67.50
26164;DHT22;13914;48.178;11.716;2022-08-19T04:04:02;18.80;67.30
26164;DHT22;13914;48.178;11.716;2022-08-19T04:06:29;18.80;67.10
26164;DHT22;13914;48.178;11.716;2022-08-19T04:08:57;18.70;68.10
26164;DHT22;13914;48.178;11.716;2022-08-19T04:11:26;18.70;68.60
26164;DHT22;13914;48.178;11.716;2022-08-19T04:13:54;18.80;68.40
26164;DHT22;13914;48.178;11.716;2022-08-19T04:16:22;18.70;68.40
26164;DHT22;13914;48.178;11.716;2022-08-19T04:18:49;18.70;67.00
26164;DHT22;13914;48.178;11.716;2022-08-19T04:21:18;18.70;67.00
26164;DHT22;13914;48.178;11.716;2022-08-19T04:23:46;18.70;66.60
26164;DHT22;13914;48.178;11.716;2022-08-19T04:26:25;18.70;66.80
26164;DHT22;13914;48.178;11.716;2022-08-19T04:28:54;18.70;67.00
26164;DHT22;13914;48.178;11.716;2022-08-19T04:31:26;18.70;68.30
26164;DHT22;13914;48.178;11.716;2022-08-19T04:33:58;18.70;66.90
26164;DHT22;13914;48.178;11.716;2022-08-19T04:36:32;18.70;66.20
26164;DHT22;13914;48.178;11.716;2022-08-19T04:39:04;18.70;66.60
26164;DHT22;13914;48.178;11.716;2022-08-19T04:41:31;18.70;66.30
26164;DHT22;13914;48.178;11.716;2022-08-19T04:44:16;18.70;66.20
26164;DHT22;13914;48.178;11.716;2022-08-19T04:46:47;18.70;66.40
26164;DHT22;13914;48.178;11.716;2022-08-19T04:49:14;18.70;66.10
26164;DHT22;13914;48.178;11.716;2022-08-19T04:51:44;18.70;66.20
26164;DHT22;13914;48.178;11.716;2022-08-19T04:54:11;18.70;65.70
26164;DHT22;13914;48.178;11.716;2022-08-19T04:56:39;18.70;65.60
26164;DHT22;13914;48.178;11.716;2022-08-19T04:59:05;18.70;66.20
26164;DHT22;13914;48.178;11.716;2022-08-19T05:01:33;18.70;65.80
26164;DHT22;13914;48.178;11.716;2022-08-19T05:04:00;18.70;65.70
26164;DHT22;13914;48.178;11.716;2022-08-19T05:06:27;18.70;65.50
26164;DHT22;13914;48.178;11.716;2022-08-19T05:08:54;18.70;65.40
26164;DHT22;13914;48.178;11.716;2022-08-19T05:11:23;18.70;65.50
26164;DHT22;13914;48.178;11.716;2022-08-19T05:13:51;18.70;66.10
26164;DHT22;13914;48.178;11.716;2022-08-19T05:16:18;18.70;65.90
26164;DHT22;13914;48.178;11.716;2022-08-19T05:18:45;18.70;65.20
26164;DHT22;13914;48.178;11.716;2022-08-19T05:21:29;18.70;66.60
26164;DHT22;13914;48.178;11.716;2022-08-19T05:24:15;18.70;65.80
26164;DHT22;13914;48.178;11.716;2022-08-19T05:26:44;18.60;65.80
26164;DHT22;13914;48.178;11.716;2022-08-19T05:29:16;18.70;65.70
26164;DHT22;13914;48.178;11.716;2022-08-19T05:31:44;18.70;65.80
26164;DHT22;13914;48.178;11.716;2022-08-19T05:34:11;18.70;65.50
26164;DHT22;13914;48.178;11.716;2022-08-19T05:36:40;18.70;65.50
26164;DHT22;13914;48.178;11.716;2022-08-19T05:39:14;18.60;65.10
26164;DHT22;13914;48.178;11.716;2022-08-19T05:41:44;18.70;65.00
26164;DHT22;13914;48.178;11.716;2022-08-19T05:44:12;18.70;65.00
26164;DHT22;13914;48.178;11.716;2022-08-19T05:46:39;18.70;64.90
26164;DHT22;13914;48.178;11.716;2022-08-19T05:49:06;18.70;64.80
26164;DHT22;13914;48.178;11.716;2022-08-19T05:51:33;18.70;65.00
26164;DHT22;13914;48.178;11.716;2022-08-19T05:54:05;18.70;65.00
26164;DHT22;13914;48.178;11.716;2022-08-19T05:56:32;18.80;65.10
26164;DHT22;13914;48.178;11.716;2022-08-19T05:59:02;18.70;64.90
26164;DHT22;13914;48.178;11.716;2022-08-19T06:01:29;18.80;65.00
26164;DHT22;13914;48.178;11.716;2022-08-19T06:03:55;18.80;64.80
26164;DHT22;13914;48.178;11.716;2022-08-19T06:06:21;18.70;64.90
26164;DHT22;13914;48.178;11.716;2022-08-19T06:08:47;18.80;64.80
26164;DHT22;13914;48.178;11.716;2022-08-19T06:13:51;18.80;64.50
26164;DHT22;13914;48.178;11.716;2022-08-19T06:16:22;18.80;64.60
26164;DHT22;13914;48.178;11.716;2022-08-19T06:18:49;18.80;64.40
26164;DHT22;13914;48.178;11.716;2022-08-19T06:21:21;18.80;64.50
26164;DHT22;13914;48.178;11.716;2022-08-19T06:23:49;18.80;64.20
26164;DHT22;13914;48.178;11.716;2022-08-19T06:26:17;18.80;64.30
26164;DHT22;13914;48.178;11.716;2022-08-19T06:28:44;18.80;63.80
26164;DHT22;13914;48.178;11.716;2022-08-19T06:31:14;18.80;63.80
26164;DHT22;13914;48.178;11.716;2022-08-19T06:33:42;18.80;63.70
26164;DHT22;13914;48.178;11.716;2022-08-19T06:36:27;18.80;63.70
26164;DHT22;13914;48.178;11.716;2022-08-19T06:39:02;18.80;63.60
26164;DHT22;13914;48.178;11.716;2022-08-19T06:41:29;18.80;63.70
26164;DHT22;13914;48.178;11.716;2022-08-19T06:43:58;18.80;63.50
26164;DHT22;13914;48.178;11.716;2022-08-19T06:46:24;18.90;64.30
26164;DHT22;13914;48.178;11.716;2022-08-19T06:48:51;18.90;63.40
26164;DHT22;13914;48.178;11.716;2022-08-19T06:51:19;18.90;63.40
26164;DHT22;13914;48.178;11.716;2022-08-19T06:53:47;18.90;63.10
26164;DHT22;13914;48.178;11.716;2022-08-19T06:56:14;18.90;63.20
26164;DHT22;13914;48.178;11.716;2022-08-19T06:58:42;18.90;63.10
26164;DHT22;13914;48.178;11.716;2022-08-19T07:01:08;19.00;63.10
26164;DHT22;13914;48.178;11.716;2022-08-19T07:03:36;19.00;63.10
26164;DHT22;13914;48.178;11.716;2022-08-19T07:06:08;19.00;63.20
26164;DHT22;13914;48.178;11.716;2022-08-19T07:08:37;19.00;63.40
26164;DHT22;13914;48.178;11.716;2022-08-19T07:11:08;19.00;63.30
26164;DHT22;13914;48.178;11.716;2022-08-19T07:13:37;19.00;63.30
26164;DHT22;13914;48.178;11.716;2022-08-19T07:16:12;19.00;63.30
26164;DHT22;13914;48.178;11.716;2022-08-19T07:18:40;19.00;63.40
26164;DHT22;13914;48.178;11.716;2022-08-19T07:21:12;19.10;63.50
26164;DHT22;13914;48.178;11.716;2022-08-19T07:23:41;19.00;63.20
26164;DHT22;13914;48.178;11.716;2022-08-19T07:26:17;19.10;63.50
26164;DHT22;13914;48.178;11.716;2022-08-19T07:28:47;19.10;64.30
26164;DHT22;13914;48.178;11.716;2022-08-19T07:31:16;19.10;64.70
26164;DHT22;13914;48.178;11.716;2022-08-19T07:33:44;19.20;66.70
26164;DHT22;13914;48.178;11.716;2022-08-19T07:36:12;19.20;65.20
26164;DHT22;13914;48.178;11.716;2022-08-19T07:38:44;19.20;70.10
26164;DHT22;13914;48.178;11.716;2022-08-19T07:41:15;19.30;69.80
26164;DHT22;13914;48.178;11.716;2022-08-19T07:43:48;19.30;66.80
26164;DHT22;13914;48.178;11.716;2022-08-19T07:46:14;19.40;68.00
26164;DHT22;13914;48.178;11.716;2022-08-19T07:48:43;19.40;68.50
26164;DHT22;13914;48.178;11.716;2022-08-19T07:51:18;19.40;68.00
26164;DHT22;13914;48.178;11.716;2022-08-19T07:53:47;19.40;69.50
26164;DHT22;13914;48.178;11.716;2022-08-19T07:56:16;19.50;68.20
26164;DHT22;13914;48.178;11.716;2022-08-19T07:58:47;19.50;68.00
26164;DHT22;13914;48.178;11.716;2022-08-19T08:01:18;19.50;68.80
26164;DHT22;13914;48.178;11.716;2022-08-19T08:03:46;19.60;67.60
26164;DHT22;13914;48.178;11.716;2022-08-19T08:06:30;19.60;67.90
26164;DHT22;13914;48.178;11.716;2022-08-19T08:09:17;19.60;68.90
26164;DHT22;13914;48.178;11.716;2022-08-19T08:11:52;19.60;66.90
26164;DHT22;13914;48.178;11.716;2022-08-19T08:14:30;19.60;66.90
26164;DHT22;13914;48.178;11.716;2022-08-19T08:16:58;19.70;67.20
26164;DHT22;13914;48.178;11.716;2022-08-19T08:19:26;19.70;69.60
26164;DHT22;13914;48.178;11.716;2022-08-19T08:21:54;19.70;67.30
26164;DHT22;13914;48.178;11.716;2022-08-19T08:24:21;19.70;66.60
26164;DHT22;13914;48.178;11.716;2022-08-19T08:26:47;19.70;66.60
26164;DHT22;13914;48.178;11.716;2022-08-19T08:29:14;19.70;66.70
26164;DHT22;13914;48.178;11.716;2022-08-19T08:31:42;19.70;66.70
26164;DHT22;13914;48.178;11.716;2022-08-19T08:34:10;19.70;66.40
26164;DHT22;13914;48.178;11.716;2022-08-19T08:36:38;19.70;65.70
26164;DHT22;13914;48.178;11.716;2022-08-19T08:39:11;19.80;66.00
26164;DHT22;13914;48.178;11.716;2022-08-19T08:41:58;19.80;66.10
26164;DHT22;13914;48.178;11.716;2022-08-19T08:47:04;19.70;65.70
26164;DHT22;13914;48.178;11.716;2022-08-19T08:50:12;19.70;65.40
26164;DHT22;13914;48.178;11.716;2022-08-19T08:52:47;19.80;65.50
26164;DHT22;13914;48.178;11.716;2022-08-19T08:55:19;19.80;65.90
26164;DHT22;13914;48.178;11.716;2022-08-19T09:02:50;19.80;65.60
26164;DHT22;13914;48.178;11.716;2022-08-19T09:05:16;19.70;65.30
26164;DHT22;13914;48.178;11.716;2022-08-19T09:07:50;19.80;66.10
26164;DHT22;13914;48.178;11.716;2022-08-19T09:10:31;19.70;65.60
26164;DHT22;13914;48.178;11.716;2022-08-19T09:15:47;19.80;65.30
26164;DHT22;13914;48.178;11.716;2022-08-19T09:21:09;19.80;65.90
26164;DHT22;13914;48.178;11.716;2022-08-19T09:23:36;19.80;66.10
26164;DHT22;13914;48.178;11.716;2022-08-19T09:26:08;19.80;66.00
26164;DHT22;13914;48.178;11.716;2022-08-19T09:28:35;19.80;65.60
26164;DHT22;13914;48.178;11.716;2022-08-19T09:31:02;19.80;65.50
26164;DHT22;13914;48.178;11.716;2022-08-19T09:33:28;19.80;65.50
26164;DHT22;13914;48.178;11.716;2022-08-19T09:36:07;19.80;65.70
26164;DHT22;13914;48.178;11.716;2022-08-19T09:38:35;19.80;66.00
26164;DHT22;13914;48.178;11.716;2022-08-19T09:41:03;19.80;66.10
26164;DHT22;13914;48.178;11.716;2022-08-19T09:43:31;19.80;67.20
26164;DHT22;13914;48.178;11.716;2022-08-19T09:46:00;19.80;65.30
26164;DHT22;13914;48.178;11.716;2022-08-19T09:48:26;19.90;65.70
26164;DHT22;13914;48.178;11.716;2022-08-19T09:50:52;19.90;66.70
26164;DHT22;13914;48.178;11.716;2022-08-19T09:53:19;19.90;66.10
26164;DHT22;13914;48.178;11.716;2022-08-19T09:55:47;19.90;65.70
26164;DHT22;13914;48.178;11.716;2022-08-19T09:58:13;19.90;65.50
26164;DHT22;13914;48.178;11.716;2022-08-19T10:00:39;20.00;65.60
26164;DHT22;13914;48.178;11.716;2022-08-19T10:03:05;20.00;65.60
26164;DHT22;13914;48.178;11.716;2022-08-19T10:05:30;20.00;65.70
26164;DHT22;13914;48.178;11.716;2022-08-19T10:08:23;20.10;65.60
26164;DHT22;13914;48.178;11.716;2022-08-19T10:10:51;20.10;65.70
26164;DHT22;13914;48.178;11.716;2022-08-19T10:13:20;20.20;65.50
26164;DHT22;13914;48.178;11.716;2022-08-19T10:15:49;20.20;65.80
26164;DHT22;13914;48.178;11.716;2022-08-19T10:18:20;20.30;65.60
26164;DHT22;13914;48.178;11.716;2022-08-19T10:20:48;20.30;66.10
26164;DHT22;13914;48.178;11.716;2022-08-19T10:23:15;20.40;66.10
26164;DHT22;13914;48.178;11.716;2022-08-19T10:25:43;20.40;66.00
26164;DHT22;13914;48.178;11.716;2022-08-19T10:28:09;20.40;65.60
26164;DHT22;13914;48.178;11.716;2022-08-19T10:30:38;20.50;65.50
26164;DHT22;13914;48.178;11.716;2022-08-19T10:33:05;20.60;66.00
26164;DHT22;13914;48.178;11.716;2022-08-19T10:35:32;20.60;65.60
26164;DHT22;13914;48.178;11.716;2022-08-19T10:37:58;20.70;65.70
26164;DHT22;13914;48.178;11.716;2022-08-19T10:40:26;20.80;65.30
26164;DHT22;13914;48.178;11.716;2022-08-19T10:42:53;20.90;65.80
26164;DHT22;13914;48.178;11.716;2022-08-19T10:45:21;20.90;65.90
26164;DHT22;13914;48.178;11.716;2022-08-19T10:47:48;21.00;67.00
26164;DHT22;13914;48.178;11.716;2022-08-19T10:50:14;21.00;66.90
26164;DHT22;13914;48.178;11.716;2022-08-19T10:53:04;21.10;67.30
26164;DHT22;13914;48.178;11.716;2022-08-19T10:55:31;21.20;66.60
26164;DHT22;13914;48.178;11.716;2022-08-19T10:58:18;21.20;67.80
26164;DHT22;13914;48.178;11.716;2022-08-19T11:00:57;21.30;67.10
26164;DHT22;13914;48.178;11.716;2022-08-19T11:03:25;21.30;66.00
26164;DHT22;13914;48.178;11.716;2022-08-19T11:06:04;21.40;65.80
26164;DHT22;13914;48.178;11.716;2022-08-19T11:08:33;21.50;66.10
26164;DHT22;13914;48.178;11.716;2022-08-19T11:11:01;21.60;66.10
26164;DHT22;13914;48.178;11.716;2022-08-19T11:13:34;21.60;65.50
26164;DHT22;13914;48.178;11.716;2022-08-19T11:16:09;21.70;65.80
26164;DHT22;13914;48.178;11.716;2022-08-19T11:18:43;21.80;65.70
26164;DHT22;13914;48.178;11.716;2022-08-19T11:21:12;21.90;65.50
26164;DHT22;13914;48.178;11.716;2022-08-19T11:23:40;22.00;65.70
26164;DHT22;13914;48.178;11.716;2022-08-19T11:26:06;22.10;65.10
26164;DHT22;13914;48.178;11.716;2022-08-19T11:28:32;22.10;64.80
26164;DHT22;13914;48.178;11.716;2022-08-19T11:30:58;22.20;66.10
26164;DHT22;13914;48.178;11.716;2022-08-19T11:33:23;22.30;65.20
26164;DHT22;13914;48.178;11.716;2022-08-19T11:35:52;22.40;65.50
26164;DHT22;13914;48.178;11.716;2022-08-19T11:38:19;22.50;65.10
26164;DHT22;13914;48.178;11.716;2022-08-19T11:40:45;22.60;65.80
26164;DHT22;13914;48.178;11.716;2022-08-19T11:43:11;22.60;65.60
26164;DHT22;13914;48.178;11.716;2022-08-19T11:45:36;22.70;65.50
26164;DHT22;13914;48.178;11.716;2022-08-19T11:48:02;22.80;65.20
26164;DHT22;13914;48.178;11.716;2022-08-19T11:50:28;22.80;65.20
26164;DHT22;13914;48.178;11.716;2022-08-19T11:52:55;22.90;66.50
26164;DHT22;13914;48.178;11.716;2022-08-19T11:55:22;22.90;64.90
26164;DHT22;13914;48.178;11.716;2022-08-19T11:57:48;23.00;65.50
26164;DHT22;13914;48.178;11.716;2022-08-19T12:00:15;23.00;65.50
26164;DHT22;13914;48.178;11.716;2022-08-19T12:02:41;23.00;66.00
26164;DHT22;13914;48.178;11.716;2022-08-19T12:05:08;23.10;66.00
26164;DHT22;13914;48.178;11.716;2022-08-19T12:07:34;23.20;65.20
26164;DHT22;13914;48.178;11.716;2022-08-19T12:10:00;23.20;65.00
26164;DHT22;13914;48.178;11.716;2022-08-19T12:12:27;23.30;65.30
26164;DHT22;13914;48.178;11.716;2022-08-19T12:14:53;23.30;65.80
26164;DHT22;13914;48.178;11.716;2022-08-19T12:17:23;23.30;65.40
26164;DHT22;13914;48.178;11.716;2022-08-19T12:19:50;23.30;65.10
26164;DHT22;13914;48.178;11.716;2022-08-19T12:22:16;23.30;65.40
26164;DHT22;13914;48.178;11.716;2022-08-19T12:24:42;23.30;65.60
26164;DHT22;13914;48.178;11.716;2022-08-19T12:27:08;23.30;66.00
26164;DHT22;13914;48.178;11.716;2022-08-19T12:29:33;23.30;65.60
26164;DHT22;13914;48.178;11.716;2022-08-19T12:31:59;23.30;66.20
26164;DHT22;13914;48.178;11.716;2022-08-19T12:34:31;23.30;65.60
26164;DHT22;13914;48.178;11.716;2022-08-19T12:37:00;23.30;66.00
26164;DHT22;13914;48.178;11.716;2022-08-19T12:39:28;23.30;65.80
26164;DHT22;13914;48.178;11.716;2022-08-19T12:41:53;23.30;65.00
26164;DHT22;13914;48.178;11.716;2022-08-19T12:44:19;23.30;65.50
26164;DHT22;13914;48.178;11.716;2022-08-19T12:46:46;23.40;65.70
26164;DHT22;13914;48.178;11.716;2022-08-19T12:49:12;23.40;65.30
26164;DHT22;13914;48.178;11.716;2022-08-19T12:51:38;23.40;66.20
26164;DHT22;13914;48.178;11.716;2022-08-19T12:54:04;23.40;64.80
26164;DHT22;13914;48.178;11.716;2022-08-19T12:56:30;23.40;65.70
26164;DHT22;13914;48.178;11.716;2022-08-19T12:58:56;23.40;66.00
26164;DHT22;13914;48.178;11.716;2022-08-19T13:01:22;23.50;65.10
26164;DHT22;13914;48.178;11.716;2022-08-19T13:03:48;23.50;65.20
26164;DHT22;13914;48.178;11.716;2022-08-19T13:06:14;23.50;64.90
26164;DHT22;13914;48.178;11.716;2022-08-19T13:08:40;23.60;64.90
26164;DHT22;13914;48.178;11.716;2022-08-19T13:11:13;23.50;64.80
26164;DHT22;13914;48.178;11.716;2022-08-19T13:13:42;23.60;64.80
26164;DHT22;13914;48.178;11.716;2022-08-19T13:16:10;23.70;65.00
26164;DHT22;13914;48.178;11.716;2022-08-19T13:18:37;23.70;65.40
26164;DHT22;13914;48.178;11.716;2022-08-19T13:21:06;23.80;64.60
26164;DHT22;13914;48.178;11.716;2022-08-19T13:23:35;23.90;64.40
26164;DHT22;13914;48.178;11.716;2022-08-19T13:26:04;23.80;64.90
26164;DHT22;13914;48.178;11.716;2022-08-19T13:28:31;23.80;64.50
26164;DHT22;13914;48.178;11.716;2022-08-19T13:31:19;23.80;64.20
26164;DHT22;13914;48.178;11.716;2022-08-19T13:34:05;23.90;64.30
26164;DHT22;13914;48.178;11.716;2022-08-19T13:36:36;23.90;63.90
26164;DHT22;13914;48.178;11.716;2022-08-19T13:39:04;24.00;63.90
26164;DHT22;13914;48.178;11.716;2022-08-19T13:41:32;24.00;63.80
26164;DHT22;13914;48.178;11.716;2022-08-19T13:43:59;24.00;63.80
26164;DHT22;13914;48.178;11.716;2022-08-19T13:46:25;24.00;63.80
26164;DHT22;13914;48.178;11.716;2022-08-19T13:48:52;23.90;63.80
26164;DHT22;13914;48.178;11.716;2022-08-19T13:51:18;23.80;64.10
26164;DHT22;13914;48.178;11.716;2022-08-19T13:53:44;23.80;64.20
26164;DHT22;13914;48.178;11.716;2022-08-19T13:56:11;23.80;64.20
26164;DHT22;13914;48.178;11.716;2022-08-19T13:58:39;23.80;64.20
26164;DHT22;13914;48.178;11.716;2022-08-19T14:01:05;23.70;64.30
26164;DHT22;13914;48.178;11.716;2022-08-19T14:03:32;23.70;64.20
26164;DHT22;13914;48.178;11.716;2022-08-19T14:05:59;23.70;64.40
26164;DHT22;13914;48.178;11.716;2022-08-19T14:08:25;23.70;64.50
26164;DHT22;13914;48.178;11.716;2022-08-19T14:10:53;23.70;64.50
26164;DHT22;13914;48.178;11.716;2022-08-19T14:13:22;23.70;64.70
26164;DHT22;13914;48.178;11.716;2022-08-19T14:15:49;23.60;64.50
26164;DHT22;13914;48.178;11.716;2022-08-19T14:18:16;23.60;64.60
26164;DHT22;13914;48.178;11.716;2022-08-19T14:20:43;23.60;64.70
26164;DHT22;13914;48.178;11.716;2022-08-19T14:23:09;23.60;64.80
26164;DHT22;13914;48.178;11.716;2022-08-19T14:25:36;23.50;64.50
26164;DHT22;13914;48.178;11.716;2022-08-19T14:28:02;23.60;64.20
26164;DHT22;13914;48.178;11.716;2022-08-19T14:30:30;23.50;64.60
26164;DHT22;13914;48.178;11.716;2022-08-19T14:32:58;23.50;64.30
26164;DHT22;13914;48.178;11.716;2022-08-19T14:35:28;23.50;64.60
26164;DHT22;13914;48.178;11.716;2022-08-19T14:37:55;23.50;64.60
26164;DHT22;13914;48.178;11.716;2022-08-19T14:40:23;23.50;64.80
26164;DHT22;13914;48.178;11.716;2022-08-19T14:42:56;23.50;64.40
26164;DHT22;13914;48.178;11.716;2022-08-19T14:45:28;23.50;64.70
26164;DHT22;13914;48.178;11.716;2022-08-19T14:47:55;23.50;64.80
26164;DHT22;13914;48.178;11.716;2022-08-19T14:50:21;23.50;64.80
26164;DHT22;13914;48.178;11.716;2022-08-19T14:52:48;23.50;64.90
26164;DHT22;13914;48.178;11.716;2022-08-19T14:55:18;23.50;65.20
26164;DHT22;13914;48.178;11.716;2022-08-19T14:57:44;23.40;65.50
26164;DHT22;13914;48.178;11.716;2022-08-19T15:00:11;23.50;64.90
26164;DHT22;13914;48.178;11.716;2022-08-19T15:02:41;23.40;66.30
26164;DHT22;13914;48.178;11.716;2022-08-19T15:05:09;23.40;65.40
26164;DHT22;13914;48.178;11.716;2022-08-19T15:07:36;23.40;65.10
26164;DHT22;13914;48.178;11.716;2022-08-19T15:10:03;23.40;65.30
26164;DHT22;13914;48.178;11.716;2022-08-19T15:12:33;23.40;65.50
26164;DHT22;13914;48.178;11.716;2022-08-19T15:15:00;23.30;65.60
26164;DHT22;13914;48.178;11.716;2022-08-19T15:17:26;23.30;65.70
26164;DHT22;13914;48.178;11.716;2022-08-19T15:19:52;23.30;65.70
26164;DHT22;13914;48.178;11.716;2022-08-19T15:22:18;23.40;65.30
26164;DHT22;13914;48.178;11.716;2022-08-19T15:24:44;23.30;65.40
26164;DHT22;13914;48.178;11.716;2022-08-19T15:27:12;23.20;65.50
26164;DHT22;13914;48.178;11.716;2022-08-19T15:29:38;23.20;65.60
26164;DHT22;13914;48.178;11.716;2022-08-19T15:32:05;23.30;65.30
26164;DHT22;13914;48.178;11.716;2022-08-19T15:34:32;23.30;65.10
26164;DHT22;13914;48.178;11.716;2022-08-19T15:36:58;23.40;65.00
26164;DHT22;13914;48.178;11.716;2022-08-19T15:39:24;23.30;64.80
26164;DHT22;13914;48.178;11.716;2022-08-19T15:41:50;23.30;64.70